Time;durP1;ratioP1;P1;durP2;ratioP2;P2;SDS_P1;SDS_P2;PMS_P1;PMS_P2;Temp;Humidity;BMP_temperature;BMP_pressure;BME280_temperature;BME280_humidity;BME280_pressure;Samples;Min_cycle;Max_cycle;Signal;HPM_P1;HPM_P2
2021/08/14 00:00:22;;;;;;;5.50;4.93;;;16.40;99.90;;;;;;485006;245;28760;-70
2021/08/14 00:02:23;;;;;;;4.90;4.40;;;16.30;99.90;;;;;;484984;245;28733;-69
2021/08/14 00:04:24;;;;;;;4.57;4.17;;;16.30;99.90;;;;;;484971;245;28796;-69
2021/08/14 00:06:25;;;;;;;4.63;4.10;;;16.30;99.90;;;;;;484991;245;28746;-70
2021/08/14 00:08:27;;;;;;;5.23;4.13;;;16.30;99.90;;;;;;484999;245;28865;-69
2021/08/14 00:10:28;;;;;;;4.60;4.20;;;16.20;99.90;;;;;;484966;245;28890;-70
2021/08/14 00:12:29;;;;;;;4.90;4.50;;;16.20;99.90;;;;;;484987;245;28792;-71
2021/08/14 00:14:30;;;;;;;5.00;4.53;;;16.10;99.90;;;;;;484995;245;28794;-72
2021/08/14 00:16:32;;;;;;;4.40;4.00;;;16.10;99.90;;;;;;484987;245;28755;-70
2021/08/14 00:18:33;;;;;;;4.43;4.03;;;16.10;99.90;;;;;;484999;245;29276;-70
2021/08/14 00:20:34;;;;;;;5.23;4.80;;;16.00;99.90;;;;;;485001;245;29993;-70
2021/08/14 00:22:36;;;;;;;4.73;4.13;;;16.00;99.90;;;;;;484984;245;29236;-72
2021/08/14 00:24:37;;;;;;;4.37;3.97;;;16.00;99.90;;;;;;485003;245;28808;-72
2021/08/14 00:26:38;;;;;;;4.60;4.20;;;16.00;99.90;;;;;;485004;245;28828;-72
2021/08/14 00:28:41;;;;;;;4.13;3.73;;;16.00;99.90;;;;;;485029;245;28781;-73
2021/08/14 00:30:40;;;;;;;5.00;4.50;;;16.00;99.90;;;;;;485005;245;28788;-71
2021/08/14 00:32:42;;;;;;;4.33;3.93;;;16.00;99.90;;;;;;485006;245;28750;-72
2021/08/14 00:34:43;;;;;;;5.50;4.30;;;16.00;99.90;;;;;;485024;245;28824;-72
2021/08/14 00:36:44;;;;;;;4.50;4.10;;;16.00;99.90;;;;;;484973;245;28776;-71
2021/08/14 00:38:45;;;;;;;4.87;4.40;;;16.00;99.90;;;;;;485013;245;28867;-69
2021/08/14 00:40:47;;;;;;;4.70;4.07;;;15.90;99.90;;;;;;484988;245;28869;-69
2021/08/14 00:42:48;;;;;;;4.53;4.13;;;15.90;99.90;;;;;;484977;245;29234;-72
2021/08/14 00:44:49;;;;;;;4.67;4.27;;;15.80;99.90;;;;;;484976;245;29370;-72
2021/08/14 00:46:50;;;;;;;4.53;4.13;;;15.80;99.90;;;;;;484979;245;29205;-72
2021/08/14 00:48:52;;;;;;;4.70;4.23;;;15.80;99.90;;;;;;484995;245;28844;-72
2021/08/14 00:50:53;;;;;;;4.80;3.73;;;15.70;99.90;;;;;;484984;245;28855;-72
2021/08/14 00:52:54;;;;;;;5.07;4.47;;;15.70;99.90;;;;;;485012;245;28738;-72
2021/08/14 00:54:55;;;;;;;5.43;4.40;;;15.70;99.90;;;;;;484982;245;28773;-73
2021/08/14 00:56:57;;;;;;;4.43;4.03;;;15.70;99.90;;;;;;484993;245;28748;-72
2021/08/14 00:58:58;;;;;;;4.77;4.30;;;15.70;99.90;;;;;;484992;245;28859;-72
2021/08/14 01:00:59;;;;;;;5.80;4.30;;;15.80;99.90;;;;;;484983;245;28858;-70
2021/08/14 01:03:00;;;;;;;6.00;4.17;;;15.80;99.90;;;;;;484975;245;28746;-72
2021/08/14 01:05:02;;;;;;;4.50;4.10;;;15.70;99.90;;;;;;484967;245;28780;-72
2021/08/14 01:07:03;;;;;;;4.20;3.90;;;15.70;99.90;;;;;;484972;245;29189;-72
2021/08/14 01:09:04;;;;;;;4.30;3.90;;;15.70;99.90;;;;;;484981;245;29356;-70
2021/08/14 01:11:05;;;;;;;4.37;3.97;;;15.60;99.90;;;;;;484982;245;29350;-69
2021/08/14 01:13:07;;;;;;;4.20;3.80;;;15.70;99.90;;;;;;484990;245;28742;-70
2021/08/14 01:15:08;;;;;;;4.30;3.87;;;15.70;99.90;;;;;;485000;245;28777;-70
2021/08/14 01:17:09;;;;;;;4.20;3.90;;;15.70;99.90;;;;;;484976;245;28851;-72
2021/08/14 01:19:10;;;;;;;4.50;3.97;;;15.70;99.90;;;;;;484979;245;28873;-71
2021/08/14 01:21:12;;;;;;;4.57;4.17;;;15.70;99.90;;;;;;484994;245;28769;-70
2021/08/14 01:23:13;;;;;;;4.90;4.40;;;15.60;99.90;;;;;;484986;245;28758;-70
2021/08/14 01:25:14;;;;;;;4.63;3.93;;;15.60;99.90;;;;;;484993;245;28785;-70
2021/08/14 01:27:15;;;;;;;4.47;4.07;;;15.60;99.90;;;;;;484980;245;28752;-71
2021/08/14 01:29:17;;;;;;;4.67;4.00;;;15.50;99.90;;;;;;484972;245;28864;-71
2021/08/14 01:31:19;;;;;;;4.20;3.83;;;15.50;99.90;;;;;;484985;245;29438;-70
2021/08/14 01:33:19;;;;;;;5.50;4.20;;;15.50;99.90;;;;;;484937;245;29313;-70
2021/08/14 01:35:20;;;;;;;4.30;3.90;;;15.50;99.90;;;;;;484993;245;29259;-70
2021/08/14 01:37:22;;;;;;;4.40;4.00;;;15.50;99.90;;;;;;484978;245;29334;-71
2021/08/14 01:39:23;;;;;;;4.13;3.73;;;15.50;99.90;;;;;;484983;245;28768;-72
2021/08/14 01:41:24;;;;;;;4.33;3.93;;;15.50;99.90;;;;;;484998;245;28796;-71
2021/08/14 01:43:25;;;;;;;4.43;4.03;;;15.50;99.90;;;;;;484993;245;28816;-71
2021/08/14 01:45:27;;;;;;;4.27;3.60;;;15.50;99.90;;;;;;484984;245;28864;-73
2021/08/14 01:47:28;;;;;;;4.50;4.10;;;15.50;99.90;;;;;;484975;245;28768;-71
2021/08/14 01:49:29;;;;;;;5.03;4.03;;;15.40;99.90;;;;;;485009;245;28796;-69
2021/08/14 01:51:30;;;;;;;4.40;4.00;;;15.40;99.90;;;;;;484975;245;29121;-70
2021/08/14 01:53:32;;;;;;;4.30;3.93;;;15.40;99.90;;;;;;485001;245;28843;-70
2021/08/14 01:55:33;;;;;;;4.10;3.60;;;15.40;99.90;;;;;;485019;245;29323;-70
2021/08/14 01:57:34;;;;;;;4.47;4.07;;;15.40;99.90;;;;;;484991;245;29212;-71
2021/08/14 01:59:35;;;;;;;3.80;3.50;;;15.50;99.90;;;;;;484998;245;29323;-72
2021/08/14 02:01:37;;;;;;;4.27;3.87;;;15.50;99.90;;;;;;484996;245;29259;-72
2021/08/14 02:03:38;;;;;;;4.10;3.70;;;15.50;99.90;;;;;;485010;245;28730;-70
2021/08/14 02:05:39;;;;;;;4.10;3.70;;;15.40;99.90;;;;;;484988;245;28861;-72
2021/08/14 02:07:41;;;;;;;7.03;4.00;;;15.40;99.90;;;;;;484982;245;28801;-71
2021/08/14 02:09:42;;;;;;;4.63;4.23;;;15.30;99.90;;;;;;484999;245;28836;-72
2021/08/14 02:11:43;;;;;;;4.40;3.77;;;15.20;99.90;;;;;;484992;245;29236;-70
2021/08/14 02:13:44;;;;;;;4.93;4.40;;;15.20;99.90;;;;;;484948;242;28764;-70
2021/08/14 02:15:46;;;;;;;5.53;3.97;;;15.20;99.90;;;;;;485007;245;28787;-72
2021/08/14 02:17:47;;;;;;;4.47;4.07;;;15.10;99.90;;;;;;484975;245;28809;-70
2021/08/14 02:19:48;;;;;;;4.23;3.83;;;15.20;99.90;;;;;;484996;245;28859;-69
2021/08/14 02:21:49;;;;;;;4.53;4.10;;;15.20;99.90;;;;;;484985;245;29287;-71
2021/08/14 02:23:51;;;;;;;4.40;3.97;;;15.20;99.90;;;;;;484976;245;29303;-70
2021/08/14 02:25:52;;;;;;;4.73;4.00;;;15.10;99.90;;;;;;484981;245;29377;-72
2021/08/14 02:27:53;;;;;;;4.47;4.07;;;15.10;99.90;;;;;;484964;245;28745;-72
2021/08/14 02:29:54;;;;;;;4.30;3.90;;;15.10;99.90;;;;;;484971;245;28863;-70
2021/08/14 02:31:56;;;;;;;4.63;3.70;;;15.10;99.90;;;;;;484977;245;28876;-70
2021/08/14 02:33:58;;;;;;;4.40;4.00;;;15.10;99.90;;;;;;484985;245;28855;-70
2021/08/14 02:35:58;;;;;;;4.10;3.80;;;15.10;99.90;;;;;;484958;245;28851;-70
2021/08/14 02:37:59;;;;;;;4.77;3.90;;;15.10;99.90;;;;;;484962;245;28875;-70
2021/08/14 02:40:01;;;;;;;4.57;4.07;;;15.00;99.90;;;;;;484963;245;28859;-70
2021/08/14 02:42:02;;;;;;;3.93;3.63;;;15.00;99.90;;;;;;484967;245;28789;-70
2021/08/14 02:44:03;;;;;;;3.97;3.43;;;15.00;99.90;;;;;;484997;245;28762;-70
2021/08/14 02:46:04;;;;;;;4.20;3.80;;;15.00;99.90;;;;;;484973;245;29332;-70
2021/08/14 02:48:06;;;;;;;3.63;3.30;;;15.00;99.90;;;;;;484965;245;29209;-73
2021/08/14 02:50:07;;;;;;;4.20;3.80;;;15.00;99.90;;;;;;484957;245;29221;-71
2021/08/14 02:52:08;;;;;;;4.83;3.83;;;15.00;99.90;;;;;;484939;245;28869;-73
2021/08/14 02:54:09;;;;;;;4.60;3.60;;;15.00;99.90;;;;;;484974;245;28788;-70
2021/08/14 02:56:11;;;;;;;3.63;3.10;;;15.00;99.90;;;;;;484976;245;28776;-71
2021/08/14 02:58:12;;;;;;;4.67;3.40;;;15.00;99.90;;;;;;484970;245;28754;-70
2021/08/14 03:00:13;;;;;;;3.80;3.50;;;14.90;99.90;;;;;;484979;245;28858;-70
2021/08/14 03:02:14;;;;;;;3.57;3.27;;;14.90;99.90;;;;;;484991;245;29146;-71
2021/08/14 03:04:16;;;;;;;4.30;3.90;;;14.80;99.90;;;;;;484985;245;28833;-70
2021/08/14 03:06:17;;;;;;;3.93;3.53;;;14.90;99.90;;;;;;484969;245;28481;-70
2021/08/14 03:08:18;;;;;;;3.97;3.57;;;14.90;99.90;;;;;;484990;245;28738;-71
2021/08/14 03:10:19;;;;;;;3.90;3.47;;;14.80;99.90;;;;;;484999;245;29277;-70
2021/08/14 03:12:21;;;;;;;4.17;3.73;;;14.80;99.90;;;;;;484965;245;29433;-72
2021/08/14 03:14:22;;;;;;;4.53;4.10;;;14.80;99.90;;;;;;484992;245;29208;-70
2021/08/14 03:16:23;;;;;;;4.53;4.00;;;14.80;99.90;;;;;;485011;245;28800;-70
2021/08/14 03:18:24;;;;;;;3.97;3.57;;;14.80;99.90;;;;;;484995;245;28745;-69
2021/08/14 03:20:26;;;;;;;4.17;3.80;;;14.80;99.90;;;;;;484975;245;28788;-71
2021/08/14 03:22:27;;;;;;;3.80;3.50;;;14.80;99.90;;;;;;484985;245;29285;-72
2021/08/14 03:24:28;;;;;;;3.70;3.40;;;14.80;99.90;;;;;;484984;245;29310;-71
2021/08/14 03:26:29;;;;;;;4.30;3.63;;;14.70;99.90;;;;;;484903;245;29358;-72
2021/08/14 03:28:31;;;;;;;5.03;3.80;;;14.70;99.90;;;;;;484892;245;28752;-70
2021/08/14 03:30:32;;;;;;;3.90;3.50;;;14.70;99.90;;;;;;484831;245;28901;-70
2021/08/14 03:32:33;;;;;;;3.43;3.13;;;14.70;99.90;;;;;;484938;245;28471;-70
2021/08/14 03:34:34;;;;;;;4.37;3.47;;;14.70;99.90;;;;;;484927;245;28825;-70
2021/08/14 03:36:36;;;;;;;3.60;3.30;;;14.70;99.90;;;;;;484911;245;28776;-72
2021/08/14 03:38:37;;;;;;;4.10;3.70;;;14.60;99.90;;;;;;484929;245;28840;-71
2021/08/14 03:40:38;;;;;;;4.00;3.70;;;14.60;99.90;;;;;;484944;245;28800;-71
2021/08/14 03:42:39;;;;;;;4.33;3.47;;;14.60;99.90;;;;;;484954;245;28781;-70
2021/08/14 03:44:41;;;;;;;4.60;3.73;;;14.70;99.90;;;;;;484969;245;28843;-70
2021/08/14 03:46:42;;;;;;;3.63;3.33;;;14.80;99.90;;;;;;484959;245;29263;-71
2021/08/14 03:48:43;;;;;;;4.13;3.70;;;14.80;99.90;;;;;;484964;245;29221;-70
2021/08/14 03:50:45;;;;;;;3.20;3.00;;;14.80;99.90;;;;;;485000;245;29202;-71
2021/08/14 03:52:46;;;;;;;3.60;3.30;;;14.70;99.90;;;;;;484971;245;29259;-71
2021/08/14 03:54:47;;;;;;;4.67;3.50;;;14.70;99.90;;;;;;484980;245;28530;-71
2021/08/14 03:56:48;;;;;;;3.43;3.13;;;14.70;99.90;;;;;;484978;245;28772;-71
2021/08/14 03:58:50;;;;;;;3.77;3.47;;;14.70;99.90;;;;;;484984;245;28784;-70
2021/08/14 04:00:51;;;;;;;4.97;3.23;;;14.60;99.90;;;;;;484959;245;28737;-70
2021/08/14 04:02:52;;;;;;;3.80;3.50;;;14.70;99.90;;;;;;484973;245;28788;-70
2021/08/14 04:04:53;;;;;;;3.40;3.10;;;14.70;99.90;;;;;;484963;245;28808;-70
2021/08/14 04:06:55;;;;;;;9.13;4.13;;;14.60;99.90;;;;;;484958;245;28474;-71
2021/08/14 04:08:56;;;;;;;3.60;3.30;;;14.60;99.90;;;;;;484976;245;28748;-70
2021/08/14 04:10:57;;;;;;;3.57;3.20;;;14.50;99.90;;;;;;484976;245;29315;-72
2021/08/14 04:12:58;;;;;;;3.53;3.23;;;14.60;99.90;;;;;;484962;245;29263;-69
2021/08/14 04:15:00;;;;;;;4.40;3.40;;;14.60;99.90;;;;;;484980;245;29362;-70
2021/08/14 04:17:01;;;;;;;3.80;3.17;;;14.60;99.90;;;;;;484954;245;29267;-70
2021/08/14 04:19:02;;;;;;;3.40;3.10;;;14.50;99.90;;;;;;484979;245;28837;-70
2021/08/14 04:21:03;;;;;;;3.40;3.10;;;14.50;99.90;;;;;;484971;245;28745;-70
2021/08/14 04:23:05;;;;;;;3.73;3.30;;;14.50;99.90;;;;;;484961;245;28827;-70
2021/08/14 04:25:06;;;;;;;4.23;3.80;;;14.50;99.90;;;;;;484995;245;28753;-70
2021/08/14 04:27:07;;;;;;;3.60;3.30;;;14.50;99.90;;;;;;484952;245;28867;-71
2021/08/14 04:29:08;;;;;;;3.90;3.50;;;14.50;99.90;;;;;;484981;245;29234;-70
2021/08/14 04:31:10;;;;;;;3.50;3.20;;;14.60;99.90;;;;;;484969;245;28781;-70
2021/08/14 04:33:11;;;;;;;4.10;3.80;;;14.60;99.90;;;;;;484944;245;28489;-70
2021/08/14 04:35:12;;;;;;;3.53;3.23;;;14.60;99.90;;;;;;484973;245;28830;-70
2021/08/14 04:37:13;;;;;;;3.50;3.20;;;14.60;99.90;;;;;;484950;245;29284;-70
2021/08/14 04:39:15;;;;;;;3.87;3.40;;;14.60;99.90;;;;;;484974;245;29261;-71
2021/08/14 04:41:16;;;;;;;3.30;3.00;;;14.60;99.90;;;;;;484993;245;29185;-70
2021/08/14 04:43:17;;;;;;;3.90;3.50;;;14.60;99.90;;;;;;484967;245;28781;-70
2021/08/14 04:45:18;;;;;;;3.67;3.37;;;14.70;99.90;;;;;;484976;245;28797;-70
2021/08/14 04:47:20;;;;;;;4.30;3.37;;;14.50;99.90;;;;;;484978;245;28807;-70
2021/08/14 04:49:21;;;;;;;4.20;3.80;;;14.60;99.90;;;;;;484968;245;28776;-73
2021/08/14 04:51:22;;;;;;;3.50;3.20;;;14.60;99.90;;;;;;484980;245;28746;-71
2021/08/14 04:53:23;;;;;;;4.50;3.63;;;14.70;99.90;;;;;;484993;245;28844;-72
2021/08/14 04:55:25;;;;;;;4.03;3.73;;;14.70;99.90;;;;;;485000;245;28883;-70
2021/08/14 04:57:26;;;;;;;3.97;3.57;;;14.70;99.90;;;;;;484984;245;28861;-71
2021/08/14 04:59:27;;;;;;;4.13;3.73;;;14.60;99.90;;;;;;485034;245;28895;-72
2021/08/14 05:01:28;;;;;;;4.13;3.73;;;14.60;99.90;;;;;;485026;245;29201;-72
2021/08/14 05:03:30;;;;;;;3.87;3.57;;;14.70;99.90;;;;;;484971;245;29385;-72
2021/08/14 05:05:31;;;;;;;3.93;3.53;;;14.80;99.90;;;;;;484998;245;29224;-71
2021/08/14 05:07:32;;;;;;;3.43;3.13;;;14.80;99.90;;;;;;484884;245;28796;-71
2021/08/14 05:09:33;;;;;;;3.87;3.57;;;14.90;99.90;;;;;;484959;245;28772;-72
2021/08/14 05:11:35;;;;;;;3.47;3.17;;;14.90;99.90;;;;;;484999;245;28750;-73
2021/08/14 05:13:36;;;;;;;3.90;3.60;;;14.90;99.90;;;;;;484972;245;28866;-70
2021/08/14 05:15:37;;;;;;;3.70;3.40;;;14.90;99.90;;;;;;484995;245;28741;-72
2021/08/14 05:17:38;;;;;;;3.90;3.60;;;15.00;99.90;;;;;;484970;245;28840;-72
2021/08/14 05:19:40;;;;;;;3.40;3.00;;;15.00;99.90;;;;;;485005;245;28877;-72
2021/08/14 05:21:41;;;;;;;4.20;3.80;;;15.00;99.90;;;;;;484991;245;28745;-71
2021/08/14 05:23:42;;;;;;;3.40;3.10;;;15.00;99.90;;;;;;484999;245;28804;-72
2021/08/14 05:25:43;;;;;;;3.50;3.20;;;15.10;99.90;;;;;;484990;245;30305;-72
2021/08/14 05:27:45;;;;;;;4.70;3.57;;;15.10;99.90;;;;;;484964;245;29255;-72
2021/08/14 05:29:46;;;;;;;3.30;3.00;;;15.20;99.90;;;;;;485000;245;29251;-72
2021/08/14 05:31:47;;;;;;;11.30;4.63;;;15.30;99.90;;;;;;484973;245;29305;-72
2021/08/14 05:33:48;;;;;;;3.60;3.30;;;15.30;99.90;;;;;;484978;245;28887;-71
2021/08/14 05:35:50;;;;;;;3.23;2.93;;;15.30;99.90;;;;;;484966;245;28816;-71
2021/08/14 05:37:51;;;;;;;3.33;3.07;;;15.40;99.90;;;;;;482311;240;28877;-72
2021/08/14 05:39:52;;;;;;;3.37;3.07;;;15.40;99.90;;;;;;477023;249;28842;-72
2021/08/14 05:41:53;;;;;;;3.70;3.30;;;15.40;99.90;;;;;;477041;249;28823;-71
2021/08/14 05:43:55;;;;;;;3.43;3.17;;;15.50;99.90;;;;;;477082;249;28947;-72
2021/08/14 05:45:56;;;;;;;3.87;3.40;;;15.60;99.90;;;;;;477030;249;28903;-73
2021/08/14 05:47:57;;;;;;;2.83;2.63;;;15.60;99.90;;;;;;477054;249;28894;-72
2021/08/14 05:49:58;;;;;;;3.00;2.80;;;15.60;99.90;;;;;;477062;249;29377;-72
2021/08/14 05:52:01;;;;;;;4.53;3.83;;;15.70;99.90;;;;;;477067;249;29274;-69
2021/08/14 05:54:01;;;;;;;3.30;3.10;;;15.70;99.90;;;;;;477012;249;29398;-72
2021/08/14 05:56:02;;;;;;;2.70;2.50;;;15.80;99.90;;;;;;477050;245;29365;-72
2021/08/14 05:58:03;;;;;;;3.40;3.10;;;15.80;99.90;;;;;;477065;249;28791;-72
2021/08/14 06:00:05;;;;;;;3.43;2.87;;;15.90;99.90;;;;;;477044;249;28903;-71
2021/08/14 06:02:06;;;;;;;3.00;2.80;;;15.90;99.90;;;;;;477046;249;28799;-72
2021/08/14 06:04:08;;;;;;;3.37;3.07;;;;;;;;;;477037;249;28834;-72
2021/08/14 06:06:09;;;;;;;2.67;2.47;;;16.10;99.90;;;;;;477052;249;27591;-71
2021/08/14 06:08:10;;;;;;;3.23;2.93;;;16.20;99.90;;;;;;477046;249;29167;-72
2021/08/14 06:10:12;;;;;;;3.07;2.87;;;16.20;99.90;;;;;;477053;249;28799;-70
2021/08/14 06:12:13;;;;;;;3.17;2.73;;;16.30;99.90;;;;;;477057;249;28933;-70
2021/08/14 06:14:14;;;;;;;2.90;2.63;;;16.40;99.90;;;;;;477057;249;28879;-71
2021/08/14 06:16:16;;;;;;;3.33;3.03;;;16.40;99.90;;;;;;477064;249;29301;-72
2021/08/14 06:18:17;;;;;;;3.00;2.80;;;16.50;99.90;;;;;;477036;249;29383;-72
2021/08/14 06:20:18;;;;;;;3.17;2.87;;;16.60;99.90;;;;;;477060;249;29247;-72
2021/08/14 06:22:19;;;;;;;3.13;2.90;;;16.60;99.90;;;;;;477057;249;28926;-72
2021/08/14 06:24:20;;;;;;;3.43;2.80;;;16.70;99.90;;;;;;477054;249;28783;-72
2021/08/14 06:26:22;;;;;;;2.97;2.77;;;16.80;99.90;;;;;;477053;249;28822;-72
2021/08/14 06:28:23;;;;;;;3.50;3.20;;;16.90;99.90;;;;;;477046;249;28940;-69
2021/08/14 06:30:24;;;;;;;3.40;3.10;;;16.90;99.90;;;;;;477062;249;28919;-70
2021/08/14 06:32:25;;;;;;;2.80;2.60;;;17.00;99.90;;;;;;477064;249;28844;-69
2021/08/14 06:34:27;;;;;;;3.40;3.10;;;17.10;99.90;;;;;;477129;249;28902;-70
2021/08/14 06:36:28;;;;;;;3.43;2.60;;;17.20;99.90;;;;;;477063;249;28838;-70
2021/08/14 06:38:29;;;;;;;2.90;2.70;;;17.20;99.90;;;;;;477012;249;28870;-70
2021/08/14 06:40:30;;;;;;;3.23;2.77;;;17.30;99.90;;;;;;476719;249;29294;-70
2021/08/14 06:42:32;;;;;;;2.87;2.67;;;17.40;99.90;;;;;;476709;249;29426;-70
2021/08/14 06:44:33;;;;;;;3.20;3.00;;;17.40;99.90;;;;;;476946;249;29250;-70
2021/08/14 06:46:34;;;;;;;3.10;2.80;;;17.50;99.90;;;;;;477041;249;29445;-70
2021/08/14 06:48:35;;;;;;;2.80;2.50;;;17.60;99.90;;;;;;476984;249;28940;-70
2021/08/14 06:50:37;;;;;;;3.10;2.90;;;17.60;99.90;;;;;;477055;249;28783;-70
2021/08/14 06:52:38;;;;;;;2.80;2.60;;;17.70;99.90;;;;;;477066;249;28843;-70
2021/08/14 06:54:39;;;;;;;2.90;2.70;;;17.80;99.90;;;;;;477051;249;28842;-70
2021/08/14 06:56:40;;;;;;;3.77;3.47;;;17.90;99.90;;;;;;477037;249;28819;-69
2021/08/14 06:58:42;;;;;;;2.93;2.73;;;18.00;99.90;;;;;;477092;249;28838;-69
2021/08/14 07:00:43;;;;;;;2.87;2.67;;;18.00;99.90;;;;;;477022;249;28863;-70
2021/08/14 07:02:44;;;;;;;4.17;3.00;;;18.10;99.90;;;;;;477066;249;28905;-70
2021/08/14 07:04:45;;;;;;;2.83;2.60;;;18.20;99.90;;;;;;477057;249;29339;-72
2021/08/14 07:06:47;;;;;;;2.83;2.63;;;18.30;99.90;;;;;;477027;249;29346;-72
2021/08/14 07:08:48;;;;;;;2.70;2.50;;;18.40;99.90;;;;;;477084;249;29317;-72
2021/08/14 07:10:49;;;;;;;3.23;3.00;;;18.50;99.90;;;;;;477051;249;29313;-71
2021/08/14 07:12:50;;;;;;;2.97;2.77;;;18.60;99.90;;;;;;477067;249;28843;-72
2021/08/14 07:14:52;;;;;;;3.30;3.00;;;18.70;99.90;;;;;;477038;249;28901;-71
2021/08/14 07:16:53;;;;;;;2.77;2.57;;;18.80;99.90;;;;;;477030;246;28879;-72
2021/08/14 07:18:54;;;;;;;3.23;2.90;;;19.00;99.90;;;;;;477063;249;28826;-72
2021/08/14 07:20:56;;;;;;;2.97;2.73;;;19.10;99.90;;;;;;477057;249;28807;-72
2021/08/14 07:22:57;;;;;;;7.20;2.83;;;19.30;99.90;;;;;;477065;249;28846;-72
2021/08/14 07:24:58;;;;;;;2.90;2.70;;;19.40;99.90;;;;;;477067;249;28896;-71
2021/08/14 07:26:59;;;;;;;3.10;2.80;;;19.50;99.90;;;;;;477044;249;28862;-72
2021/08/14 07:29:01;;;;;;;3.63;2.80;;;19.60;99.90;;;;;;477060;249;28913;-71
2021/08/14 07:31:02;;;;;;;2.90;2.70;;;19.70;99.90;;;;;;477047;249;29327;-72
2021/08/14 07:33:03;;;;;;;3.27;2.97;;;19.80;99.90;;;;;;477044;249;29297;-71
2021/08/14 07:35:04;;;;;;;2.97;2.77;;;19.90;99.90;;;;;;477037;249;29368;-71
2021/08/14 07:37:06;;;;;;;3.10;2.80;;;19.90;99.90;;;;;;477052;249;28803;-73
2021/08/14 07:39:07;;;;;;;3.07;2.80;;;19.90;99.90;;;;;;477070;249;28830;-72
2021/08/14 07:41:08;;;;;;;2.70;2.50;;;19.90;99.90;;;;;;477055;249;28803;-73
2021/08/14 07:43:09;;;;;;;3.00;2.80;;;20.00;99.90;;;;;;477064;249;28854;-72
2021/08/14 07:45:15;;;;;;;3.43;3.13;;;20.10;99.90;;;;;;477044;249;28826;-72
2021/08/14 07:47:12;;;;;;;3.13;2.93;;;20.10;99.90;;;;;;476735;249;28881;-72
2021/08/14 07:49:13;;;;;;;3.67;3.30;;;20.20;99.90;;;;;;477015;249;28846;-72
2021/08/14 07:51:14;;;;;;;3.90;3.33;;;20.10;99.90;;;;;;477061;249;28796;-73
2021/08/14 07:53:16;;;;;;;3.10;2.80;;;20.40;99.90;;;;;;477019;249;28844;-71
2021/08/14 07:55:17;;;;;;;3.70;3.33;;;20.40;99.90;;;;;;477063;249;29477;-70
2021/08/14 07:57:18;;;;;;;3.83;3.53;;;20.40;99.90;;;;;;477073;249;29268;-74
2021/08/14 07:59:19;;;;;;;8.83;3.20;;;20.40;99.90;;;;;;477042;249;29333;-72
2021/08/14 08:01:21;;;;;;;3.27;2.97;;;20.30;99.90;;;;;;477047;249;28936;-72
2021/08/14 08:03:22;;;;;;;5.83;3.80;;;20.50;99.90;;;;;;477044;249;28811;-72
2021/08/14 08:05:23;;;;;;;3.80;3.50;;;20.60;99.90;;;;;;477060;249;28949;-72
2021/08/14 08:07:24;;;;;;;3.20;3.00;;;20.70;99.90;;;;;;477062;249;28789;-71
2021/08/14 08:09:26;;;;;;;3.40;3.20;;;20.70;99.90;;;;;;477072;249;28907;-72
2021/08/14 08:11:27;;;;;;;5.20;3.90;;;20.70;99.90;;;;;;477080;246;28871;-72
2021/08/14 08:13:28;;;;;;;3.63;3.33;;;20.80;99.90;;;;;;477074;249;28873;-72
2021/08/14 08:15:29;;;;;;;4.00;3.70;;;20.90;99.90;;;;;;477063;249;28977;-72
2021/08/14 08:17:31;;;;;;;4.20;3.80;;;20.90;99.90;;;;;;477075;249;28884;-72
2021/08/14 08:19:32;;;;;;;3.83;3.53;;;21.00;99.90;;;;;;477055;249;29296;-72
2021/08/14 08:21:33;;;;;;;3.50;3.20;;;21.00;99.90;;;;;;477066;249;29272;-72
2021/08/14 08:23:34;;;;;;;3.97;3.57;;;21.10;99.90;;;;;;477047;249;29325;-72
2021/08/14 08:25:36;;;;;;;4.20;3.63;;;21.10;99.90;;;;;;477062;249;28930;-72
2021/08/14 08:27:37;;;;;;;4.87;3.70;;;21.10;99.90;;;;;;477039;249;28797;-72
2021/08/14 08:29:38;;;;;;;4.47;4.07;;;21.30;99.90;;;;;;477046;249;28839;-72
2021/08/14 08:31:39;;;;;;;5.03;3.97;;;21.30;99.90;;;;;;477071;249;28913;-72
2021/08/14 08:33:41;;;;;;;4.93;4.50;;;21.30;99.90;;;;;;477069;249;28835;-72
2021/08/14 08:35:42;;;;;;;4.13;3.73;;;21.50;99.90;;;;;;477097;249;28851;-72
2021/08/14 08:37:43;;;;;;;4.73;4.33;;;21.50;99.90;;;;;;477086;249;28982;-72
2021/08/14 08:39:44;;;;;;;5.40;4.10;;;21.40;99.90;;;;;;477075;249;28841;-72
2021/08/14 08:41:46;;;;;;;4.87;4.40;;;21.40;99.90;;;;;;477071;249;28803;-72
2021/08/14 08:43:47;;;;;;;4.70;4.30;;;21.60;99.90;;;;;;477046;249;29292;-72
2021/08/14 08:45:48;;;;;;;4.10;3.80;;;21.60;99.90;;;;;;477083;249;29323;-73
2021/08/14 08:47:50;;;;;;;4.53;4.13;;;21.60;99.90;;;;;;477049;249;29320;-72
2021/08/14 08:49:51;;;;;;;5.27;4.17;;;21.70;99.90;;;;;;477065;249;28843;-72
2021/08/14 08:51:52;;;;;;;4.80;4.33;;;21.80;99.90;;;;;;476983;249;28863;-72
2021/08/14 08:53:53;;;;;;;6.87;4.50;;;21.80;99.90;;;;;;477056;249;28832;-72
2021/08/14 08:55:54;;;;;;;4.60;4.20;;;21.80;99.90;;;;;;483133;242;28788;-72
2021/08/14 08:57:56;;;;;;;5.00;4.53;;;21.90;99.90;;;;;;483700;246;28830;-71
2021/08/14 08:59:58;;;;;;;5.17;4.20;;;22.10;99.90;;;;;;483715;246;28812;-72
2021/08/14 09:01:58;;;;;;;4.57;3.63;;;22.10;99.90;;;;;;483683;246;28745;-71
2021/08/14 09:03:59;;;;;;;4.07;3.60;;;22.00;99.90;;;;;;483031;246;28809;-72
2021/08/14 09:06:01;;;;;;;5.10;4.37;;;21.90;99.90;;;;;;483542;246;28865;-72
2021/08/14 09:08:02;;;;;;;4.87;4.37;;;22.00;99.90;;;;;;483699;246;29215;-72
2021/08/14 09:10:03;;;;;;;5.13;4.63;;;22.00;99.90;;;;;;483628;246;29355;-72
2021/08/14 09:12:05;;;;;;;4.53;4.13;;;22.10;99.90;;;;;;483698;246;29209;-72
2021/08/14 09:14:06;;;;;;;6.30;5.30;;;22.20;99.90;;;;;;483351;246;29353;-72
2021/08/14 09:16:07;;;;;;;7.07;4.73;;;22.30;99.90;;;;;;483672;246;28862;-73
2021/08/14 09:18:08;;;;;;;5.00;4.50;;;22.40;99.90;;;;;;483720;246;28759;-72
2021/08/14 09:20:09;;;;;;;4.70;4.30;;;22.50;99.90;;;;;;483714;246;28796;-72
2021/08/14 09:22:11;;;;;;;5.17;4.67;;;22.50;99.90;;;;;;483732;246;28753;-72
2021/08/14 09:24:12;;;;;;;4.50;4.10;;;22.50;99.90;;;;;;483683;246;28807;-72
2021/08/14 09:26:13;;;;;;;5.40;4.90;;;22.40;99.90;;;;;;483678;246;28804;-72
2021/08/14 09:28:14;;;;;;;4.50;4.10;;;22.40;99.90;;;;;;483674;246;28757;-72
2021/08/14 09:30:16;;;;;;;4.90;4.40;;;22.40;99.90;;;;;;483707;246;28876;-72
2021/08/14 09:32:19;;;;;;;4.10;3.70;;;22.50;99.90;;;;;;483729;246;29194;-72
2021/08/14 09:34:18;;;;;;;4.13;3.83;;;22.50;99.90;;;;;;483534;246;29323;-72
2021/08/14 09:36:20;;;;;;;3.80;3.50;;;22.40;99.90;;;;;;483726;246;29276;-72
2021/08/14 09:38:21;;;;;;;4.60;3.67;;;22.50;99.90;;;;;;483667;246;29354;-72
2021/08/14 09:40:22;;;;;;;6.03;3.40;;;22.50;99.90;;;;;;483734;246;28789;-72
2021/08/14 09:42:23;;;;;;;3.70;3.40;;;22.70;99.90;;;;;;483732;246;28758;-72
2021/08/14 09:44:24;;;;;;;5.43;3.87;;;22.70;99.90;;;;;;483720;246;28763;-72
2021/08/14 09:46:26;;;;;;;3.60;3.30;;;22.80;99.90;;;;;;483711;246;28844;-72
2021/08/14 09:48:28;;;;;;;3.90;3.50;;;22.80;99.90;;;;;;483692;246;28880;-72
2021/08/14 09:50:28;;;;;;;4.77;3.60;;;23.00;99.90;;;;;;483681;246;28806;-72
2021/08/14 09:52:29;;;;;;;3.60;3.30;;;23.10;99.90;;;;;;485024;243;28871;-72
2021/08/14 09:54:31;;;;;;;3.77;3.47;;;23.10;99.90;;;;;;485771;245;28816;-71
2021/08/14 09:56:34;;;;;;;4.80;3.87;;;23.20;99.90;;;;;;485744;245;29277;-72
2021/08/14 09:58:33;;;;;;;3.70;3.30;;;23.30;99.90;;;;;;486363;243;29285;-72
2021/08/14 10:00:34;;;;;;;3.67;3.37;;;23.20;99.90;;;;;;488431;242;28765;-72
2021/08/14 10:02:36;;;;;;;9.07;4.23;;;23.20;99.90;;;;;;486451;242;28765;-72
2021/08/14 10:04:37;;;;;;;5.13;4.00;;;23.40;99.90;;;;;;485670;245;29197;-72
2021/08/14 10:06:40;;;;;;;4.00;3.63;;;23.30;99.90;;;;;;485847;245;29356;-72
2021/08/14 10:08:40;;;;;;;4.13;3.73;;;23.30;99.90;;;;;;485806;244;29294;-72
2021/08/14 10:10:41;;;;;;;4.23;3.83;;;23.50;99.90;;;;;;485856;245;28857;-72
2021/08/14 10:12:42;;;;;;;3.67;3.37;;;23.30;99.90;;;;;;485829;241;28944;-73
2021/08/14 10:14:43;;;;;;;3.77;3.47;;;23.30;99.90;;;;;;485838;245;29421;-72
2021/08/14 10:16:45;;;;;;;3.80;3.50;;;23.30;99.90;;;;;;485848;245;29356;-72
2021/08/14 10:18:46;;;;;;;4.47;3.80;;;23.30;99.90;;;;;;485835;245;29312;-72
2021/08/14 10:20:47;;;;;;;4.40;4.00;;;23.40;99.90;;;;;;485765;245;28948;-72
2021/08/14 10:22:48;;;;;;;4.47;4.07;;;23.50;99.90;;;;;;485643;245;28891;-72
2021/08/14 10:24:50;;;;;;;4.00;3.60;;;23.60;99.90;;;;;;485639;245;28855;-72
2021/08/14 10:26:51;;;;;;;4.30;3.47;;;23.50;99.90;;;;;;485761;245;28797;-72
2021/08/14 10:28:52;;;;;;;4.53;4.13;;;23.40;99.90;;;;;;485838;245;28830;-72
2021/08/14 10:30:53;;;;;;;4.30;3.90;;;23.50;99.90;;;;;;485833;245;28816;-72